createdAt,value
2023-04-11T00:04:59.068Z,22.15
2023-04-11T00:10:05.532Z,23.00
2023-04-11T00:15:09.836Z,21.20
2023-04-11T00:20:14.960Z,20.90
2023-04-11T00:25:19.908Z,19.98
2023-04-11T00:35:26.636Z,18.95
2023-04-11T00:40:31.542Z,19.70
2023-04-11T00:50:42.760Z,19.27
2023-04-11T00:55:47.669Z,20.10
2023-04-11T01:05:56.002Z,20.95
2023-04-11T01:11:01.178Z,19.15
2023-04-11T01:16:05.281Z,18.17
2023-04-11T01:21:10.788Z,18.27
2023-04-11T01:26:16.361Z,18.85
2023-04-11T01:31:20.009Z,19.88
2023-04-11T01:36:23.795Z,24.92
2023-04-11T01:41:31.005Z,24.77
2023-04-11T01:46:34.791Z,26.48
2023-04-11T01:51:38.464Z,28.02
2023-04-11T01:56:43.318Z,28.83
2023-04-11T02:06:50.229Z,28.73
2023-04-11T02:11:55.097Z,25.58
2023-04-11T02:22:02.059Z,28.17
2023-04-11T02:27:07.747Z,31.15
2023-04-11T02:32:11.454Z,27.02
2023-04-11T02:37:15.158Z,28.85
2023-04-11T02:42:20.034Z,29.00
2023-04-11T02:52:26.966Z,29.70
2023-04-11T02:57:31.820Z,30.75
2023-04-11T03:02:35.528Z,28.80
2023-04-11T03:07:40.800Z,34.08
2023-04-11T03:12:45.656Z,35.47
2023-04-11T03:22:52.524Z,35.85
2023-04-11T03:27:57.696Z,31.85
2023-04-11T03:33:01.939Z,33.53
2023-04-11T03:38:05.577Z,38.00
2023-04-11T03:43:10.459Z,36.17
2023-04-11T03:53:17.128Z,41.03
2023-04-11T03:58:22.049Z,37.47
2023-04-11T04:08:28.977Z,39.10
2023-04-11T04:13:34.696Z,39.20
2023-04-11T04:18:38.190Z,37.60
2023-04-11T04:23:47.825Z,34.95
2023-04-11T04:28:54.191Z,35.50
2023-04-11T04:33:58.800Z,34.90
2023-04-11T04:39:03.344Z,36.25
2023-04-11T04:44:09.978Z,35.47
2023-04-11T04:49:13.457Z,37.38
2023-04-11T04:54:19.566Z,38.05
2023-04-11T04:59:24.731Z,37.13
2023-04-11T05:04:28.394Z,38.45
2023-04-11T05:09:31.838Z,37.10
2023-04-11T05:14:36.698Z,32.20
2023-04-11T05:24:43.324Z,27.80
2023-04-11T05:29:48.758Z,27.77
2023-04-11T05:34:55.980Z,23.88
2023-04-11T05:40:02.039Z,25.70
2023-04-11T05:45:09.850Z,26.80
2023-04-11T05:50:13.404Z,24.85
2023-04-11T05:55:17.267Z,26.27
2023-04-11T06:05:31.422Z,26.25
2023-04-11T06:10:35.039Z,25.05
2023-04-11T06:20:43.411Z,22.83
2023-04-11T06:25:46.875Z,23.98
2023-04-11T06:30:52.343Z,21.98
2023-04-11T06:35:57.022Z,22.38
2023-04-11T06:41:00.498Z,22.50
2023-04-11T06:46:06.036Z,21.08
2023-04-11T06:51:10.718Z,20.83
2023-04-11T06:56:14.244Z,19.45
2023-04-11T07:01:20.841Z,17.90
2023-04-11T07:06:24.665Z,19.25
2023-04-11T07:11:28.144Z,17.48
2023-04-11T07:16:34.761Z,16.58
2023-04-11T07:21:38.484Z,16.20
2023-04-11T07:26:42.480Z,18.23
2023-04-11T07:31:47.518Z,17.73
2023-04-11T07:36:51.475Z,19.27
2023-04-11T07:41:55.081Z,18.38
2023-04-11T07:46:59.938Z,17.80
2023-04-11T07:52:03.556Z,16.50
2023-04-11T07:57:07.059Z,15.45
2023-04-11T08:02:12.017Z,15.57
2023-04-11T08:07:15.777Z,16.05
2023-04-11T08:12:19.173Z,16.05
2023-04-11T08:17:28.592Z,15.90
2023-04-11T08:22:34.415Z,15.98
2023-04-11T08:27:38.167Z,14.70
2023-04-11T08:32:43.596Z,14.85
2023-04-11T08:37:47.165Z,15.10
2023-04-11T08:42:50.947Z,15.25
2023-04-11T08:47:56.139Z,14.77
2023-04-11T08:53:03.061Z,14.52
2023-04-11T08:58:06.780Z,15.05
2023-04-11T09:03:13.260Z,14.68
2023-04-11T09:08:18.146Z,15.35
2023-04-11T09:13:23.577Z,15.48
2023-04-11T09:18:36.106Z,15.73
2023-04-11T09:23:40.378Z,15.60
2023-04-11T09:33:56.270Z,16.33
2023-04-11T09:39:05.148Z,16.27
2023-04-11T09:44:08.609Z,15.45
2023-04-11T09:49:13.609Z,15.60
2023-04-11T09:54:17.640Z,15.70
2023-04-11T09:59:22.586Z,15.70
2023-04-11T10:04:28.233Z,15.80
2023-04-11T10:09:33.715Z,16.10
2023-04-11T10:14:44.205Z,16.10
2023-04-11T10:19:50.841Z,14.05
2023-04-11T10:25:18.052Z,14.48
2023-04-11T10:31:02.052Z,15.35
2023-04-11T10:36:10.493Z,15.55
2023-04-11T10:41:26.610Z,12.55
2023-04-11T10:46:30.099Z,12.27
2023-04-11T10:51:35.747Z,12.03
2023-04-11T10:56:57.628Z,13.07
2023-04-11T11:02:02.013Z,12.15
2023-04-11T11:07:08.719Z,11.65
2023-04-11T11:12:14.260Z,10.93
2023-04-11T11:17:18.806Z,10.68
2023-04-11T11:22:26.485Z,11.35
2023-04-11T11:27:29.991Z,10.43
2023-04-11T11:32:33.450Z,10.17
2023-04-11T11:37:38.502Z,10.33
2023-04-11T11:42:42.588Z,9.45
2023-04-11T11:47:46.975Z,9.00
2023-04-11T11:57:55.167Z,10.55
2023-04-11T12:03:00.843Z,10.07
2023-04-11T12:08:07.950Z,9.80
2023-04-11T12:13:19.794Z,9.57
2023-04-11T12:18:24.272Z,9.10
2023-04-11T12:28:32.293Z,10.02
2023-04-11T12:33:36.323Z,8.65
2023-04-11T12:38:41.305Z,8.32
2023-04-11T12:43:44.784Z,8.48
2023-04-11T12:48:48.252Z,8.13
2023-04-11T12:53:53.804Z,9.03
2023-04-11T12:58:57.558Z,8.85
2023-04-11T13:04:01.380Z,9.23
2023-04-11T13:09:07.927Z,8.48
2023-04-11T13:14:11.516Z,8.50
2023-04-11T13:19:14.989Z,9.27
2023-04-11T13:24:26.350Z,9.03
2023-04-11T13:29:30.173Z,8.65
2023-04-11T13:34:33.527Z,8.87
2023-04-11T13:39:38.573Z,8.52
2023-04-11T13:44:42.170Z,8.23
2023-04-11T13:49:45.782Z,9.27
2023-04-11T13:54:50.793Z,9.57
2023-04-11T13:59:54.229Z,9.30
2023-04-11T14:04:58.255Z,9.60
2023-04-11T14:10:03.150Z,8.93
2023-04-11T14:15:09.213Z,9.55
2023-04-11T14:20:13.124Z,9.50
2023-04-11T14:25:18.118Z,9.20
2023-04-11T14:30:21.741Z,9.55
2023-04-11T14:35:25.294Z,9.70
2023-04-11T14:40:30.215Z,10.30
2023-04-11T14:45:36.188Z,10.75
2023-04-11T14:50:39.820Z,11.13
2023-04-11T14:55:44.872Z,11.07
2023-04-11T15:00:48.372Z,9.65
2023-04-11T15:05:52.033Z,10.10
2023-04-11T15:10:56.863Z,10.43
2023-04-11T15:16:01.634Z,9.35
2023-04-11T15:26:10.056Z,11.63
2023-04-11T15:31:14.889Z,10.73
2023-04-11T15:36:18.668Z,10.32
2023-04-11T15:41:23.589Z,11.50
2023-04-11T15:46:27.295Z,10.35
2023-04-11T15:51:30.799Z,10.90
2023-04-11T15:56:35.619Z,11.20
2023-04-11T16:01:40.510Z,10.48
2023-04-11T16:06:44.696Z,10.57
2023-04-11T16:11:49.629Z,11.13
2023-04-11T16:16:54.113Z,11.60
2023-04-11T16:21:57.644Z,13.82
2023-04-11T16:27:02.829Z,14.85
2023-04-11T16:32:06.588Z,14.05
2023-04-11T16:37:10.125Z,12.50
2023-04-11T16:42:16.134Z,14.07
2023-04-11T16:47:20.605Z,14.15
2023-04-11T16:52:24.076Z,12.82
2023-04-11T16:57:29.053Z,14.07
2023-04-11T17:02:32.726Z,13.48
2023-04-11T17:07:36.487Z,13.53
2023-04-11T17:12:41.501Z,14.43
2023-04-11T17:17:45.035Z,13.82
2023-04-11T17:22:48.546Z,15.80
2023-04-11T17:27:53.357Z,15.45
2023-04-11T17:32:57.017Z,15.80
2023-04-11T17:38:00.843Z,15.48
2023-04-11T17:43:05.807Z,17.27
2023-04-11T17:48:09.389Z,15.88
2023-04-11T17:53:12.999Z,16.95
2023-04-11T17:58:18.158Z,17.08
2023-04-11T18:03:23.138Z,22.58
2023-04-11T18:08:46.908Z,20.70
2023-04-11T18:13:52.452Z,21.13
2023-04-11T18:18:56.085Z,18.95
2023-04-11T18:23:59.570Z,17.38
2023-04-11T18:29:04.545Z,18.63
2023-04-11T18:34:08.740Z,19.73
2023-04-11T18:39:12.905Z,18.95
2023-04-11T18:44:17.817Z,18.17
2023-04-11T18:54:25.262Z,20.02
2023-04-11T18:59:32.603Z,19.77
2023-04-11T19:04:38.943Z,17.80
2023-04-11T19:09:42.503Z,18.98
2023-04-11T19:14:47.321Z,20.73
2023-04-11T19:24:54.130Z,20.90
2023-04-11T19:29:59.166Z,18.55
2023-04-11T19:35:03.198Z,19.42
2023-04-11T19:40:08.390Z,19.87
2023-04-11T19:45:13.692Z,19.55
2023-04-11T19:50:17.204Z,20.33
2023-04-11T19:55:21.275Z,21.15
2023-04-11T20:00:27.301Z,21.43
2023-04-11T20:05:32.243Z,20.67
2023-04-11T20:10:37.072Z,20.47
2023-04-11T20:20:45.597Z,20.70
2023-04-11T20:25:49.435Z,21.80
2023-04-11T20:30:54.483Z,21.88
2023-04-11T20:35:58.289Z,22.00
2023-04-11T20:41:04.016Z,20.85
2023-04-11T20:46:09.652Z,20.98
2023-04-11T20:51:15.123Z,21.52
2023-04-11T20:56:18.585Z,21.73
2023-04-11T21:01:23.586Z,21.13
2023-04-11T21:11:30.576Z,21.33
2023-04-11T21:16:35.968Z,21.75
2023-04-11T21:21:40.968Z,21.65
2023-04-11T21:31:48.982Z,20.67
2023-04-11T21:41:55.688Z,22.63
2023-04-11T21:47:01.022Z,22.77
2023-04-11T21:52:04.849Z,21.50
2023-04-11T21:57:08.369Z,22.23
2023-04-11T22:02:13.434Z,23.50
2023-04-11T22:07:18.496Z,22.60
2023-04-11T22:12:22.005Z,22.13
2023-04-11T22:17:26.929Z,22.98
2023-04-11T22:32:41.049Z,20.27
2023-04-11T22:37:45.576Z,21.02
2023-04-11T22:42:52.041Z,22.45
2023-04-11T22:48:00.088Z,21.13
2023-04-11T22:53:03.800Z,22.15
2023-04-11T22:58:08.053Z,22.17
2023-04-11T23:03:14.128Z,23.00
2023-04-11T23:08:17.657Z,22.73
2023-04-11T23:13:21.087Z,23.85
2023-04-11T23:18:26.013Z,22.88
2023-04-11T23:28:32.719Z,21.70
2023-04-11T23:33:37.545Z,24.15
2023-04-11T23:43:44.213Z,23.77
2023-04-11T23:48:49.120Z,24.08
2023-04-11T23:58:56.000Z,23.20
